createdAt,value
2023-01-13T00:21:55.861Z,0.55
2023-01-13T00:22:55.836Z,0.54
2023-01-13T00:23:55.803Z,0.55
2023-01-13T00:24:55.774Z,0.53
2023-01-13T00:25:55.740Z,0.54
2023-01-13T00:26:55.720Z,0.55
2023-01-13T00:27:55.691Z,0.55
2023-01-13T00:28:55.666Z,0.55
2023-01-13T00:29:55.624Z,0.54
2023-01-13T00:30:55.647Z,0.55
2023-01-13T00:31:55.582Z,0.54
2023-01-13T00:32:55.527Z,0.53
2023-01-13T00:33:55.494Z,0.54
2023-01-13T00:34:55.473Z,0.57
2023-01-13T00:35:55.441Z,0.56
2023-01-13T00:36:55.415Z,0.53
2023-01-13T00:37:55.367Z,0.53
2023-01-13T00:38:55.343Z,0.53
2023-01-13T00:39:55.303Z,0.53
2023-01-13T00:40:55.278Z,0.55
2023-01-13T00:41:55.252Z,0.56
2023-01-13T00:42:55.224Z,0.54
2023-01-13T00:43:55.197Z,0.53
2023-01-13T00:44:55.174Z,0.54
2023-01-13T00:45:55.143Z,0.55
2023-01-13T00:46:55.097Z,0.57
2023-01-13T00:47:55.058Z,0.54
2023-01-13T00:48:55.022Z,0.52
2023-01-13T00:49:54.986Z,0.55
2023-01-13T00:50:54.966Z,0.57
2023-01-13T00:51:54.929Z,0.55
2023-01-13T00:52:54.897Z,0.55
2023-01-13T00:53:54.869Z,0.54
2023-01-13T00:54:54.832Z,0.55
2023-01-13T00:55:54.844Z,0.54
2023-01-13T00:56:54.764Z,0.56
2023-01-13T00:57:54.733Z,0.54
2023-01-13T00:58:54.711Z,0.56
2023-01-13T00:59:54.673Z,0.55
2023-01-13T01:00:54.720Z,0.54
2023-01-13T01:01:54.743Z,0.57
2023-01-13T01:02:54.563Z,0.51
2023-01-13T01:03:54.539Z,0.57
2023-01-13T01:04:54.489Z,0.56
2023-01-13T01:05:54.474Z,0.52
2023-01-13T01:06:54.440Z,0.56
2023-01-13T01:07:54.391Z,0.53
2023-01-13T01:08:54.366Z,0.56
2023-01-13T01:09:54.329Z,0.58
2023-01-13T01:10:54.301Z,0.58
2023-01-13T01:11:54.261Z,0.55
2023-01-13T01:12:54.227Z,0.59
2023-01-13T01:13:54.204Z,0.58
2023-01-13T01:14:54.178Z,0.56
2023-01-13T01:15:54.157Z,0.54
2023-01-13T01:16:54.097Z,0.55
2023-01-13T01:17:54.068Z,0.58
2023-01-13T01:18:54.034Z,0.53
2023-01-13T01:19:54.003Z,0.58
2023-01-13T01:20:53.960Z,0.56
2023-01-13T01:21:53.924Z,0.58
2023-01-13T01:22:53.896Z,0.59
2023-01-13T01:23:53.838Z,0.57
2023-01-13T01:24:53.822Z,0.58
2023-01-13T01:25:53.765Z,0.56
2023-01-13T01:26:53.747Z,0.57
2023-01-13T01:27:53.717Z,0.58
2023-01-13T01:28:53.685Z,0.57
2023-01-13T01:29:53.630Z,0.57
2023-01-13T01:30:53.592Z,0.58
2023-01-13T01:31:53.559Z,0.58
2023-01-13T01:32:53.519Z,0.60
2023-01-13T01:33:53.500Z,0.58
2023-01-13T01:34:53.446Z,0.57
2023-01-13T01:35:53.427Z,0.56
2023-01-13T01:36:53.397Z,0.58
2023-01-13T01:37:53.347Z,0.58
2023-01-13T01:38:53.316Z,0.57
2023-01-13T01:39:53.282Z,0.58
2023-01-13T01:40:53.263Z,0.61
2023-01-13T01:41:53.243Z,0.58
2023-01-13T01:42:53.199Z,0.59
2023-01-13T01:43:53.172Z,0.57
2023-01-13T01:44:53.141Z,0.57
2023-01-13T01:45:53.088Z,0.61
2023-01-13T01:46:53.211Z,0.58
2023-01-13T01:47:53.045Z,0.58
2023-01-13T01:48:53.002Z,0.58
2023-01-13T01:49:52.988Z,0.58
2023-01-13T01:50:52.954Z,0.58
2023-01-13T01:51:52.923Z,0.58
2023-01-13T01:52:52.876Z,0.57
2023-01-13T01:53:52.846Z,0.56
2023-01-13T01:54:52.814Z,0.52
2023-01-13T01:55:52.785Z,0.56
2023-01-13T01:56:52.752Z,0.59
2023-01-13T01:57:52.718Z,0.58
2023-01-13T01:58:52.686Z,0.58
2023-01-13T01:59:52.647Z,0.56
2023-01-13T02:00:52.794Z,0.57
2023-01-13T02:01:52.764Z,0.55
2023-01-13T02:03:52.530Z,0.57
2023-01-13T02:04:52.516Z,0.58
2023-01-13T02:05:52.493Z,0.56
2023-01-13T02:06:52.444Z,0.58
2023-01-13T02:07:52.463Z,0.57
2023-01-13T02:08:52.377Z,0.59
2023-01-13T02:09:52.357Z,0.60
2023-01-13T02:10:52.319Z,0.58
2023-01-13T02:11:52.295Z,0.58
2023-01-13T02:12:52.267Z,0.59
2023-01-13T02:13:52.237Z,0.58
2023-01-13T02:14:52.202Z,0.61
2023-01-13T02:15:52.170Z,0.60
2023-01-13T02:16:52.137Z,0.60
2023-01-13T02:17:52.144Z,0.57
2023-01-13T02:18:52.098Z,0.55
2023-01-13T02:19:52.048Z,0.58
2023-01-13T02:20:52.020Z,0.58
2023-01-13T02:21:51.989Z,0.59
2023-01-13T02:22:51.960Z,0.60
2023-01-13T02:23:51.920Z,0.56
2023-01-13T02:24:51.926Z,0.59
2023-01-13T02:25:51.859Z,0.59
2023-01-13T02:26:51.838Z,0.60
2023-01-13T02:27:51.813Z,0.56
2023-01-13T02:28:51.784Z,0.57
2023-01-13T02:29:51.741Z,0.57
2023-01-13T02:30:51.722Z,0.59
2023-01-13T02:31:51.726Z,0.59
2023-01-13T02:32:51.654Z,0.60
2023-01-13T02:33:51.631Z,0.61
2023-01-13T02:34:51.601Z,0.61
2023-01-13T02:35:51.590Z,0.58
2023-01-13T02:36:51.533Z,0.57
2023-01-13T02:37:51.487Z,0.60
2023-01-13T02:38:51.460Z,0.59
2023-01-13T02:39:51.424Z,0.59
2023-01-13T02:40:51.400Z,0.58
2023-01-13T02:41:51.360Z,0.59
2023-01-13T02:42:51.351Z,0.61
2023-01-13T02:43:51.299Z,0.59
2023-01-13T02:44:51.262Z,0.58
2023-01-13T02:45:51.278Z,0.59
2023-01-13T02:46:51.190Z,0.60
2023-01-13T02:47:51.159Z,0.60
2023-01-13T02:48:51.136Z,0.63
2023-01-13T02:49:51.088Z,0.59
2023-01-13T02:50:51.083Z,0.60
2023-01-13T02:51:51.026Z,0.59
2023-01-13T02:52:50.998Z,0.59
2023-01-13T02:53:50.984Z,0.58
2023-01-13T02:54:50.936Z,0.58
2023-01-13T02:55:50.926Z,0.59
2023-01-13T02:56:50.869Z,0.59
2023-01-13T02:57:50.834Z,0.60
2023-01-13T02:58:50.808Z,0.61
2023-01-13T02:59:50.756Z,0.60
2023-01-13T03:00:50.745Z,0.59
2023-01-13T03:01:50.898Z,0.60
2023-01-13T03:02:50.684Z,0.59
2023-01-13T03:03:50.624Z,0.63
2023-01-13T03:04:50.577Z,0.61
2023-01-13T03:05:50.544Z,0.60
2023-01-13T03:06:50.517Z,0.60
2023-01-13T03:07:50.447Z,0.62
2023-01-13T03:08:50.437Z,0.60
2023-01-13T03:09:50.392Z,0.63
2023-01-13T03:10:50.363Z,0.61
2023-01-13T03:11:50.321Z,0.61
2023-01-13T03:12:50.300Z,0.60
2023-01-13T03:13:50.278Z,0.63
2023-01-13T03:14:50.230Z,0.61
2023-01-13T03:15:50.189Z,0.59
2023-01-13T03:16:50.174Z,0.61
2023-01-13T03:17:50.114Z,0.61
2023-01-13T03:18:50.057Z,0.61
2023-01-13T03:19:50.027Z,0.59
2023-01-13T03:20:49.997Z,0.61
2023-01-13T03:21:49.961Z,0.61
2023-01-13T03:22:49.931Z,0.62
2023-01-13T03:23:49.892Z,0.59
2023-01-13T03:24:49.869Z,0.62
2023-01-13T03:25:49.827Z,0.61
2023-01-13T03:26:49.798Z,0.61
2023-01-13T03:27:49.767Z,0.58
2023-01-13T03:28:49.725Z,0.60
2023-01-13T03:29:49.703Z,0.59
2023-01-13T03:30:49.848Z,0.64
2023-01-13T03:31:49.633Z,0.63
2023-01-13T03:32:49.591Z,0.63
2023-01-13T03:33:49.547Z,0.64
2023-01-13T03:34:49.535Z,0.63
2023-01-13T03:35:49.466Z,0.59
2023-01-13T03:36:49.447Z,0.64
2023-01-13T03:37:49.404Z,0.65
2023-01-13T03:38:49.375Z,0.63
2023-01-13T03:39:49.338Z,0.64
2023-01-13T03:40:49.304Z,0.61
2023-01-13T03:41:49.276Z,0.62
2023-01-13T03:42:49.241Z,0.63
2023-01-13T03:43:49.191Z,0.63
2023-01-13T03:44:49.224Z,0.60
2023-01-13T03:45:49.140Z,0.61
2023-01-13T03:46:49.094Z,0.61
2023-01-13T03:47:49.058Z,0.61
2023-01-13T03:48:49.013Z,0.63
2023-01-13T03:49:48.985Z,0.63
2023-01-13T03:50:48.948Z,0.62
2023-01-13T03:51:48.913Z,0.61
2023-01-13T04:06:48.388Z,0.63
2023-01-13T06:26:43.333Z,0.66
2023-01-13T06:28:43.263Z,0.66
2023-01-13T06:29:43.209Z,0.65
2023-01-13T06:30:43.183Z,0.64
2023-01-13T06:31:43.182Z,0.66
2023-01-13T06:32:43.099Z,0.69
2023-01-13T06:33:43.050Z,0.72
2023-01-13T06:34:43.044Z,0.71
2023-01-13T06:35:42.976Z,0.70
2023-01-13T06:36:42.938Z,0.73
2023-01-13T06:37:42.900Z,0.77
2023-01-13T06:38:42.849Z,0.80
2023-01-13T06:39:42.830Z,0.85
2023-01-13T06:40:42.772Z,0.86
2023-01-13T06:41:42.710Z,0.89
2023-01-13T06:42:42.670Z,0.91
2023-01-13T06:43:42.653Z,0.93
2023-01-13T08:13:41.785Z,1.53
2023-01-13T08:44:40.158Z,1.09
2023-01-13T08:50:39.843Z,1.25
2023-01-13T08:54:39.592Z,1.34
2023-01-13T08:55:39.568Z,1.35
2023-01-13T08:56:39.551Z,1.36
2023-01-13T08:57:39.450Z,1.38
2023-01-13T08:58:39.363Z,1.43
2023-01-13T08:59:39.318Z,1.53
2023-01-13T09:00:39.277Z,1.52
2023-01-13T09:01:39.330Z,1.58
2023-01-13T09:02:39.166Z,1.59
2023-01-13T09:03:39.103Z,1.59
2023-01-13T09:04:39.129Z,1.62
2023-01-13T09:05:38.984Z,1.61
2023-01-13T09:06:38.939Z,1.63
2023-01-13T11:50:30.894Z,8.85
2023-01-13T11:51:30.830Z,9.16
2023-01-13T11:52:30.833Z,9.76
2023-01-13T11:53:30.712Z,9.89
2023-01-13T11:54:30.643Z,9.89
2023-01-13T11:55:30.617Z,10.30
2023-01-13T11:56:30.535Z,10.10
2023-01-13T11:57:30.519Z,10.10
2023-01-13T11:58:33.765Z,10.27
2023-01-13T11:59:31.354Z,10.30
2023-01-13T12:00:30.285Z,10.31
2023-01-13T12:01:30.311Z,10.38
2023-01-13T12:02:30.176Z,10.63
2023-01-13T12:03:30.151Z,11.20
2023-01-13T12:04:30.051Z,11.69
2023-01-13T12:05:29.999Z,11.40
2023-01-13T12:06:29.930Z,10.78
2023-01-13T12:07:29.845Z,11.24
2023-01-13T12:08:29.795Z,11.49
2023-01-13T12:09:29.730Z,12.11
2023-01-13T12:10:29.667Z,11.73
2023-01-13T12:11:29.601Z,10.77
2023-01-13T12:12:29.538Z,10.85
2023-01-13T12:13:29.478Z,10.53
2023-01-13T12:14:29.406Z,10.46
2023-01-13T12:15:29.336Z,6.72
2023-01-13T12:16:29.405Z,5.65
2023-01-13T12:17:29.231Z,4.33
2023-01-13T12:18:29.172Z,4.08
2023-01-13T12:19:29.105Z,3.00
2023-01-13T12:20:29.045Z,3.07
2023-01-13T12:21:28.999Z,2.45
2023-01-13T12:22:28.946Z,2.07
2023-01-13T15:08:19.758Z,3.45
2023-01-13T15:09:19.712Z,3.40
2023-01-13T15:10:19.679Z,3.38
2023-01-13T15:11:19.664Z,3.38
2023-01-13T15:12:19.593Z,3.37
2023-01-13T15:13:19.560Z,3.40
2023-01-13T15:14:19.490Z,3.42
2023-01-13T15:15:19.470Z,3.30
2023-01-13T15:16:19.524Z,3.17
2023-01-13T15:17:19.381Z,3.32
2023-01-13T15:18:19.334Z,3.33
2023-01-13T15:19:19.296Z,3.33
2023-01-13T15:20:19.272Z,3.26
2023-01-13T15:21:19.215Z,3.25
2023-01-13T15:22:19.155Z,3.30
2023-01-13T15:23:19.127Z,3.21
2023-01-13T15:24:19.071Z,3.31
2023-01-13T15:25:19.038Z,3.33
2023-01-13T15:26:18.985Z,3.25
2023-01-13T15:27:18.951Z,3.07
2023-01-13T19:17:09.737Z,2.08
2023-01-13T19:18:09.679Z,2.06
2023-01-13T19:19:09.612Z,2.09
2023-01-13T19:20:09.587Z,2.08
2023-01-13T19:21:09.554Z,2.07
2023-01-13T19:22:09.490Z,2.07
2023-01-13T19:23:09.452Z,2.08
2023-01-13T19:24:09.413Z,2.08
2023-01-13T19:25:09.376Z,2.09
2023-01-13T19:26:09.353Z,2.10
2023-01-13T19:27:09.302Z,2.13
2023-01-13T19:28:09.286Z,2.15
2023-01-13T19:29:09.239Z,2.13
2023-01-13T19:30:09.204Z,2.15
2023-01-13T19:31:09.191Z,2.11
2023-01-13T19:32:09.129Z,2.11
2023-01-13T19:33:09.089Z,2.09
2023-01-13T19:34:09.055Z,2.16
2023-01-13T19:35:09.024Z,2.14
2023-01-13T19:36:08.983Z,2.14
2023-01-13T19:37:08.938Z,2.10
2023-01-13T19:38:08.908Z,2.13
2023-01-13T19:47:09.096Z,2.14
2023-01-13T22:42:01.423Z,1.67
2023-01-13T22:51:01.063Z,1.68
2023-01-13T22:52:01.037Z,1.64
2023-01-13T22:53:00.989Z,1.70
2023-01-13T22:54:00.948Z,1.67
2023-01-13T22:55:00.933Z,1.62
2023-01-13T22:56:00.859Z,1.62
2023-01-13T22:57:00.831Z,1.64
2023-01-13T22:58:00.770Z,1.66
2023-01-13T22:59:00.729Z,1.57
2023-01-13T23:00:00.700Z,1.64
2023-01-13T23:01:00.666Z,1.63
2023-01-13T23:02:00.641Z,1.50
2023-01-13T23:03:00.570Z,1.52
2023-01-13T23:04:00.693Z,1.50
2023-01-13T23:05:00.485Z,1.54
2023-01-13T23:06:00.446Z,1.56
2023-01-13T23:07:00.403Z,1.56
2023-01-13T23:08:00.379Z,1.57
2023-01-13T23:09:00.323Z,1.60
2023-01-13T23:10:00.287Z,1.60
2023-01-13T23:11:00.241Z,1.55
2023-01-13T23:12:00.207Z,1.60
2023-01-13T23:13:00.173Z,1.63
2023-01-13T23:14:00.149Z,1.58
2023-01-13T23:15:00.096Z,1.57
2023-01-13T23:16:00.037Z,1.58
2023-01-13T23:17:00.063Z,1.61
2023-01-13T23:17:59.949Z,1.57
2023-01-13T23:18:59.906Z,1.61
2023-01-13T23:19:59.877Z,1.60
2023-01-13T23:20:59.826Z,1.59
2023-01-13T23:21:59.782Z,1.64
2023-01-13T23:22:59.744Z,1.63
2023-01-13T23:23:59.706Z,1.61
2023-01-13T23:24:59.652Z,1.60
2023-01-13T23:25:59.626Z,1.53
2023-01-13T23:26:59.566Z,1.59
2023-01-13T23:27:59.534Z,1.56
2023-01-13T23:28:59.499Z,1.61
2023-01-13T23:29:59.449Z,1.60
2023-01-13T23:30:59.591Z,1.56
2023-01-13T23:31:59.371Z,1.57
2023-01-13T23:32:59.328Z,1.57
2023-01-13T23:33:59.271Z,1.54
2023-01-13T23:34:59.238Z,1.55
2023-01-13T23:35:59.194Z,1.55
2023-01-13T23:36:59.158Z,1.59
2023-01-13T23:37:59.153Z,1.59
2023-01-13T23:38:59.084Z,1.62
2023-01-13T23:39:59.031Z,1.54
2023-01-13T23:40:58.987Z,1.56
2023-01-13T23:41:58.955Z,1.59
2023-01-13T23:42:58.917Z,1.60
